Time;durP1;ratioP1;P1;durP2;ratioP2;P2;SDS_P1;SDS_P2;PMS_P1;PMS_P2;Temp;Humidity;BMP_temperature;BMP_pressure;BME280_temperature;BME280_humidity;BME280_pressure;Samples;Min_cycle;Max_cycle;Signal;HPM_P1;HPM_P2
2021/12/06 00:01:36;;;;;;;2.65;2.15;;;2.50;99.90;;;;;;6139039;23;20013;-92
2021/12/06 00:04:05;;;;;;;8.30;5.57;;;2.50;99.90;;;;;;6163279;23;20016;-93
2021/12/06 00:06:33;;;;;;;5.32;3.28;;;2.50;99.90;;;;;;6138852;23;20023;-92
2021/12/06 00:09:01;;;;;;;3.65;2.55;;;2.40;99.90;;;;;;6138947;22;20036;-93
2021/12/06 00:11:27;;;;;;;7.05;3.45;;;2.40;99.90;;;;;;6138804;23;20388;-93
2021/12/06 00:13:53;;;;;;;7.43;4.45;;;2.40;99.90;;;;;;6163616;22;20017;-93
2021/12/06 00:16:22;;;;;;;3.13;2.47;;;2.40;99.90;;;;;;6137973;23;20043;-94
2021/12/06 00:18:50;;;;;;;6.88;4.15;;;2.40;99.90;;;;;;6139035;23;20115;-93
2021/12/06 00:21:16;;;;;;;12.82;7.55;;;2.30;99.90;;;;;;6139041;23;20009;-94
2021/12/06 00:23:42;;;;;;;12.68;6.55;;;2.30;99.90;;;;;;6138259;23;20019;-93
2021/12/06 00:26:09;;;;;;;6.60;3.40;;;2.20;99.90;;;;;;6162171;23;20052;-94
2021/12/06 00:28:35;;;;;;;18.10;8.90;;;2.20;99.90;;;;;;6138916;23;20013;-92
2021/12/06 00:31:03;;;;;;;12.52;5.85;;;2.20;99.90;;;;;;6137614;23;20025;-92
2021/12/06 00:33:29;;;;;;;9.15;4.93;;;2.20;99.90;;;;;;6139148;23;20338;-93
2021/12/06 00:35:57;;;;;;;0.50;0.50;;;2.20;99.90;;;;;;6139355;23;20009;-94
2021/12/06 00:38:22;;;;;;;2.72;2.05;;;2.20;99.90;;;;;;6138391;23;20013;-92
2021/12/06 00:40:49;;;;;;;4.50;2.72;;;2.30;99.90;;;;;;6138920;23;20341;-92
2021/12/06 00:43:16;;;;;;;9.65;5.38;;;2.30;99.90;;;;;;6138796;23;20009;-91
2021/12/06 00:45:42;;;;;;;8.57;4.45;;;2.20;99.90;;;;;;6138765;22;20114;-91
2021/12/06 00:48:09;;;;;;;11.20;6.00;;;2.20;99.90;;;;;;6138166;23;20023;-93
2021/12/06 00:50:37;;;;;;;5.95;3.88;;;2.20;99.90;;;;;;6161988;23;20020;-92
2021/12/06 00:53:03;;;;;;;6.70;3.58;;;2.30;99.90;;;;;;6138918;22;20013;-89
2021/12/06 00:55:29;;;;;;;6.05;3.45;;;2.20;99.90;;;;;;6138955;23;20017;-93
2021/12/06 00:57:55;;;;;;;5.88;3.30;;;2.20;99.90;;;;;;6138417;23;20021;-93
2021/12/06 01:00:35;;;;;;;1.33;0.98;;;2.20;99.90;;;;;;6137004;23;20037;-92
2021/12/06 01:03:07;;;;;;;6.90;4.03;;;2.10;99.90;;;;;;6137062;22;20093;-92
2021/12/06 01:05:33;;;;;;;0.60;0.60;;;2.20;99.90;;;;;;6163785;23;20009;-92
2021/12/06 01:07:58;;;;;;;5.63;2.70;;;2.20;99.90;;;;;;6138087;23;20402;-93
2021/12/06 01:10:25;;;;;;;8.02;4.20;;;2.20;99.90;;;;;;6138295;23;20384;-94
2021/12/06 01:12:51;;;;;;;0.73;0.73;;;2.20;99.90;;;;;;6138034;23;20068;-94
2021/12/06 01:15:17;;;;;;;1.95;1.30;;;2.40;99.90;;;;;;6161560;23;20016;-94
2021/12/06 01:17:45;;;;;;;0.47;0.47;;;2.30;99.90;;;;;;6136101;23;20017;-94
2021/12/06 01:20:18;;;;;;;9.13;5.32;;;2.30;99.90;;;;;;6136901;23;20044;-92
2021/12/06 01:22:50;;;;;;;8.30;4.63;;;2.20;99.90;;;;;;6139702;23;20017;-94
2021/12/06 01:25:33;;;;;;;0.60;0.60;;;2.20;99.90;;;;;;6139807;22;20068;-94
2021/12/06 01:41:17;;;;;;;2.20;1.85;;;2.00;99.90;;;;;;6163752;23;20028;-93
2021/12/06 01:44:02;;;;;;;18.23;8.15;;;2.10;99.90;;;;;;6139259;23;20013;-92
2021/12/06 01:46:28;;;;;;;8.15;4.78;;;2.10;99.90;;;;;;6138305;23;20017;-93
2021/12/06 01:48:53;;;;;;;8.02;4.38;;;2.10;99.90;;;;;;6138822;23;20078;-93
2021/12/06 01:51:19;;;;;;;3.30;2.08;;;2.00;99.90;;;;;;6139592;23;20028;-94
2021/12/06 01:53:45;;;;;;;4.70;2.05;;;2.00;99.90;;;;;;6138757;23;20048;-92
2021/12/06 01:56:11;;;;;;;0.40;0.40;;;2.10;99.90;;;;;;6163086;23;20009;-95
2021/12/06 01:58:36;;;;;;;2.15;1.38;;;2.00;99.90;;;;;;6138187;23;20063;-94
2021/12/06 02:01:04;;;;;;;3.72;3.35;;;2.00;99.90;;;;;;6137685;23;20049;-95
2021/12/06 02:03:29;;;;;;;1.73;1.63;;;2.00;99.90;;;;;;6090279;23;20009;-93
2021/12/06 02:05:55;;;;;;;11.95;6.72;;;2.00;99.90;;;;;;6138868;23;20017;-94
2021/12/06 02:08:21;;;;;;;3.00;1.58;;;2.00;99.90;;;;;;6137940;23;20023;-94
2021/12/06 02:10:47;;;;;;;8.25;5.13;;;2.40;99.90;;;;;;6137214;23;20061;-93
2021/12/06 02:13:13;;;;;;;3.70;2.55;;;2.00;99.90;;;;;;6163064;23;20017;-92
2021/12/06 02:15:47;;;;;;;5.00;3.42;;;2.00;99.90;;;;;;6138534;23;20098;-93
2021/12/06 02:18:29;;;;;;;0.63;0.63;;;2.10;99.90;;;;;;6138638;23;20017;-93
2021/12/06 02:21:03;;;;;;;4.55;2.55;;;2.10;99.90;;;;;;6133852;23;20014;-95
2021/12/06 02:23:30;;;;;;;3.97;0.87;;;2.10;99.90;;;;;;6134016;23;20107;-94
2021/12/06 02:25:55;;;;;;;1.00;0.95;;;2.10;99.90;;;;;;6138451;23;20068;-94
2021/12/06 02:28:21;;;;;;;0.45;0.45;;;2.10;99.90;;;;;;6138411;22;20067;-94
2021/12/06 02:30:47;;;;;;;1.70;1.58;;;2.20;99.90;;;;;;6138473;23;20412;-93
2021/12/06 02:33:12;;;;;;;3.72;2.20;;;2.20;99.90;;;;;;6138667;23;20024;-95
2021/12/06 02:35:38;;;;;;;2.38;1.48;;;2.20;99.90;;;;;;6138353;23;20025;-92
2021/12/06 02:38:07;;;;;;;1.00;0.95;;;2.10;99.90;;;;;;6138444;23;20013;-93
2021/12/06 02:40:34;;;;;;;1.23;1.13;;;2.80;99.90;;;;;;6140379;23;20017;-94
2021/12/06 02:43:03;;;;;;;2.10;1.23;;;2.20;99.90;;;;;;6139493;23;20009;-93
2021/12/06 02:45:30;;;;;;;7.80;2.17;;;2.20;99.90;;;;;;6163715;23;20461;-93
2021/12/06 02:47:58;;;;;;;2.65;1.67;;;2.20;99.90;;;;;;6139621;23;20440;-94
2021/12/06 02:50:29;;;;;;;1.30;1.20;;;2.20;99.90;;;;;;6139749;23;20031;-94
2021/12/06 02:52:55;;;;;;;1.60;1.50;;;2.20;99.90;;;;;;6138840;23;20350;-92
2021/12/06 02:55:33;;;;;;;1.02;0.93;;;2.20;99.90;;;;;;6138093;23;20008;-92
2021/12/06 02:58:21;;;;;;;0.80;0.80;;;2.20;99.90;;;;;;6137861;23;20044;-92
2021/12/06 03:00:56;;;;;;;1.17;0.75;;;2.20;99.90;;;;;;6138602;23;20017;-93
2021/12/06 03:03:22;;;;;;;4.13;2.78;;;2.20;99.90;;;;;;6163235;23;20013;-92
2021/12/06 03:05:52;;;;;;;1.17;1.10;;;2.20;99.90;;;;;;6139927;23;20017;-92
2021/12/06 03:08:39;;;;;;;11.43;5.03;;;2.20;99.90;;;;;;6139330;23;20009;-93
2021/12/06 03:11:07;;;;;;;1.20;1.10;;;2.20;99.90;;;;;;6140212;23;20350;-91
2021/12/06 03:13:33;;;;;;;3.53;3.05;;;2.20;99.90;;;;;;6139858;23;20048;-93
2021/12/06 03:15:59;;;;;;;1.15;0.85;;;2.20;99.90;;;;;;6139613;23;20112;-91
2021/12/06 03:18:24;;;;;;;0.75;0.75;;;2.20;99.90;;;;;;6140548;23;20013;-92
2021/12/06 03:20:50;;;;;;;7.50;4.22;;;2.20;99.90;;;;;;6139193;23;20013;-92
2021/12/06 03:23:16;;;;;;;1.30;1.20;;;2.20;99.90;;;;;;6139547;23;20009;-93
2021/12/06 03:25:44;;;;;;;2.92;2.00;;;2.20;99.90;;;;;;6139281;23;20017;-92
2021/12/06 03:28:09;;;;;;;2.25;2.05;;;2.20;99.90;;;;;;6137905;22;20013;-93
2021/12/06 03:30:35;;;;;;;0.40;0.40;;;2.20;99.90;;;;;;6138709;23;20460;-94
2021/12/06 03:33:00;;;;;;;1.08;1.02;;;2.30;99.90;;;;;;6164293;23;20078;-93
2021/12/06 03:35:26;;;;;;;2.55;2.35;;;2.30;99.90;;;;;;6139513;23;20017;-93
2021/12/06 03:37:52;;;;;;;1.42;1.00;;;2.30;99.90;;;;;;6138410;23;20016;-93
2021/12/06 03:40:17;;;;;;;2.20;1.95;;;2.30;99.90;;;;;;6139346;23;20013;-93
2021/12/06 03:42:43;;;;;;;0.77;0.77;;;2.30;99.90;;;;;;6139435;23;20013;-94
2021/12/06 03:45:11;;;;;;;0.40;0.40;;;2.30;99.90;;;;;;6139563;23;20017;-95
2021/12/06 03:47:40;;;;;;;1.77;1.65;;;2.30;99.90;;;;;;6164617;22;20061;-93
2021/12/06 03:50:08;;;;;;;0.52;0.52;;;2.30;99.90;;;;;;6138297;23;20021;-91
2021/12/06 03:52:34;;;;;;;1.05;0.88;;;2.30;99.90;;;;;;6138680;23;20013;-93
2021/12/06 03:55:01;;;;;;;2.00;1.45;;;2.30;99.90;;;;;;6114255;23;20097;-92
2021/12/06 03:57:27;;;;;;;0.50;0.50;;;2.20;99.90;;;;;;6138978;23;20014;-92
2021/12/06 03:59:53;;;;;;;1.25;1.08;;;2.30;99.90;;;;;;6139719;23;20017;-93
2021/12/06 04:02:22;;;;;;;3.15;1.77;;;2.30;99.90;;;;;;6138641;23;20051;-91
2021/12/06 04:04:48;;;;;;;3.45;2.30;;;2.30;99.90;;;;;;6165438;23;20062;-92
2021/12/06 04:07:14;;;;;;;3.05;1.50;;;2.30;99.90;;;;;;6139635;23;20029;-92
2021/12/06 04:09:39;;;;;;;3.97;2.10;;;2.40;99.90;;;;;;6140116;23;20414;-92
2021/12/06 04:12:07;;;;;;;2.20;1.42;;;2.40;99.90;;;;;;6139491;23;20023;-94
2021/12/06 04:14:33;;;;;;;6.97;2.20;;;2.30;99.90;;;;;;6139792;23;20013;-92
2021/12/06 04:16:59;;;;;;;7.95;3.47;;;2.40;99.90;;;;;;6137250;23;20021;-93
2021/12/06 04:19:25;;;;;;;5.32;4.22;;;2.40;99.90;;;;;;6137055;23;20457;-93
2021/12/06 04:21:51;;;;;;;5.35;3.05;;;2.40;99.90;;;;;;6136934;23;20036;-93
2021/12/06 04:24:17;;;;;;;5.05;2.85;;;2.40;99.90;;;;;;6139317;23;20012;-94
2021/12/06 04:26:43;;;;;;;0.50;0.50;;;2.40;99.90;;;;;;6139372;23;20028;-93
2021/12/06 04:29:10;;;;;;;7.90;3.13;;;2.40;99.90;;;;;;6139782;23;20381;-93
2021/12/06 04:31:40;;;;;;;10.18;4.43;;;2.40;99.90;;;;;;6139869;23;20019;-93
2021/12/06 04:34:06;;;;;;;1.67;1.10;;;2.40;99.90;;;;;;6162612;22;20028;-92
2021/12/06 04:36:31;;;;;;;0.60;0.60;;;2.40;99.90;;;;;;6138707;22;20017;-92
2021/12/06 04:38:57;;;;;;;3.20;1.77;;;2.40;99.90;;;;;;6138602;23;20017;-92
2021/12/06 04:41:23;;;;;;;3.45;1.85;;;2.40;99.90;;;;;;6163990;23;20013;-93
2021/12/06 04:43:49;;;;;;;2.75;2.25;;;2.50;99.90;;;;;;6139864;23;20088;-93
2021/12/06 04:46:15;;;;;;;10.02;5.43;;;2.40;99.90;;;;;;6140108;23;20017;-91
2021/12/06 04:48:41;;;;;;;4.65;2.65;;;2.40;99.90;;;;;;6137893;23;20037;-93
2021/12/06 04:51:07;;;;;;;12.30;5.40;;;2.40;99.90;;;;;;6114930;23;20102;-94
2021/12/06 04:53:36;;;;;;;4.63;3.38;;;2.40;99.90;;;;;;6139123;23;20458;-93
2021/12/06 04:56:10;;;;;;;5.35;2.60;;;2.40;99.90;;;;;;6139139;23;20009;-93
2021/12/06 04:58:46;;;;;;;4.75;2.75;;;2.40;99.90;;;;;;6139778;23;20025;-93
2021/12/06 05:01:17;;;;;;;2.90;2.58;;;2.40;99.90;;;;;;6139454;23;20013;-92
2021/12/06 05:03:44;;;;;;;7.00;4.30;;;2.40;99.90;;;;;;6137003;23;20066;-95
2021/12/06 05:06:15;;;;;;;3.40;1.52;;;2.40;99.90;;;;;;6140264;23;20071;-93
2021/12/06 05:08:44;;;;;;;10.70;3.72;;;2.40;99.90;;;;;;6139092;23;20044;-92
2021/12/06 05:11:10;;;;;;;6.68;3.97;;;2.40;99.90;;;;;;6138587;23;20038;-94
2021/12/06 05:13:38;;;;;;;4.32;2.95;;;2.40;99.90;;;;;;6138843;23;20070;-92
2021/12/06 05:16:04;;;;;;;4.18;2.47;;;2.40;99.90;;;;;;6137500;23;20013;-92
2021/12/06 05:18:29;;;;;;;4.00;2.60;;;2.40;99.90;;;;;;6138169;23;20083;-94
2021/12/06 05:20:55;;;;;;;8.40;3.85;;;2.50;99.90;;;;;;6164075;23;20346;-92
2021/12/06 05:23:21;;;;;;;7.32;3.53;;;2.40;99.90;;;;;;6138931;23;20009;-93
2021/12/06 05:25:47;;;;;;;10.02;3.80;;;2.40;99.90;;;;;;6139672;23;20048;-94
2021/12/06 05:28:13;;;;;;;8.18;4.45;;;2.50;99.90;;;;;;6163581;23;20048;-94
2021/12/06 05:30:42;;;;;;;7.45;3.30;;;2.40;99.90;;;;;;6114717;23;20049;-93
2021/12/06 05:33:09;;;;;;;11.95;6.20;;;2.40;99.90;;;;;;6138858;23;20038;-93
2021/12/06 05:35:36;;;;;;;17.55;5.53;;;2.50;99.90;;;;;;6138898;23;20449;-93
2021/12/06 05:38:03;;;;;;;7.00;3.30;;;2.50;99.90;;;;;;6161732;23;20021;-94
2021/12/06 05:40:33;;;;;;;4.85;3.03;;;3.30;99.90;;;;;;6137522;23;20009;-95
2021/12/06 05:43:00;;;;;;;2.15;1.55;;;2.40;99.90;;;;;;6138623;23;20013;-94
2021/12/06 05:45:31;;;;;;;5.88;3.55;;;2.50;99.90;;;;;;6162993;23;20044;-94
2021/12/06 05:47:57;;;;;;;15.07;5.85;;;2.40;99.90;;;;;;6162478;23;20025;-90
2021/12/06 05:50:24;;;;;;;5.50;3.58;;;2.40;99.90;;;;;;6163035;23;20028;-94
2021/12/06 05:52:54;;;;;;;5.07;2.60;;;2.50;99.90;;;;;;6137879;23;20020;-93
2021/12/06 05:55:23;;;;;;;18.60;6.00;;;3.20;99.90;;;;;;6137850;23;20438;-95
2021/12/06 05:57:50;;;;;;;2.63;1.65;;;2.50;99.90;;;;;;6137488;23;20013;-93
2021/12/06 06:00:18;;;;;;;10.98;6.15;;;2.50;99.90;;;;;;6137798;23;20269;-95
2021/12/06 06:02:46;;;;;;;13.35;6.85;;;2.50;99.90;;;;;;6162758;23;20038;-95
2021/12/06 06:05:12;;;;;;;10.80;3.72;;;2.50;99.90;;;;;;6137986;23;20024;-95
2021/12/06 06:07:38;;;;;;;15.75;6.90;;;2.50;99.90;;;;;;6137553;23;20017;-95
2021/12/06 06:10:05;;;;;;;13.88;7.60;;;2.50;99.90;;;;;;6160807;23;20319;-94
2021/12/06 06:12:30;;;;;;;2.70;1.27;;;2.50;99.90;;;;;;6137189;23;20021;-95
2021/12/06 06:14:56;;;;;;;9.23;3.67;;;2.50;99.90;;;;;;6138281;23;20020;-94
2021/12/06 06:17:22;;;;;;;7.78;2.80;;;2.50;99.90;;;;;;6137451;23;20009;-90
2021/12/06 06:19:52;;;;;;;8.90;4.65;;;2.50;99.90;;;;;;6137931;23;20457;-95
2021/12/06 06:22:18;;;;;;;7.65;3.92;;;2.50;99.90;;;;;;6137451;23;20057;-93
2021/12/06 06:24:44;;;;;;;2.17;1.08;;;2.50;99.90;;;;;;6137839;23;20468;-93
2021/12/06 06:27:10;;;;;;;7.82;4.65;;;2.50;99.90;;;;;;6137265;23;20045;-92
2021/12/06 06:29:36;;;;;;;22.08;8.27;;;2.50;99.90;;;;;;6138707;23;20119;-93
2021/12/06 06:32:03;;;;;;;1.13;1.02;;;2.50;99.90;;;;;;6137895;23;20013;-93
2021/12/06 06:34:29;;;;;;;1.05;0.95;;;2.60;99.90;;;;;;6089630;23;20017;-93
2021/12/06 06:36:55;;;;;;;2.78;2.25;;;2.50;99.90;;;;;;6136757;23;20068;-93
2021/12/06 06:39:22;;;;;;;0.35;0.35;;;2.50;99.90;;;;;;6137786;23;20342;-94
2021/12/06 06:41:50;;;;;;;1.38;1.27;;;2.50;99.90;;;;;;6162029;23;20020;-94
2021/12/06 06:44:17;;;;;;;2.33;1.52;;;2.50;99.90;;;;;;6137244;23;20020;-93
2021/12/06 06:47:02;;;;;;;3.30;1.23;;;2.50;99.90;;;;;;6136924;23;20017;-93
2021/12/06 06:49:30;;;;;;;1.93;1.80;;;2.50;99.90;;;;;;6161345;23;20056;-94
2021/12/06 06:51:57;;;;;;;0.40;0.40;;;2.50;99.90;;;;;;6160060;23;20060;-94
2021/12/06 06:54:23;;;;;;;4.97;1.52;;;2.50;99.90;;;;;;6134538;23;20021;-94
2021/12/06 06:56:49;;;;;;;2.70;1.90;;;2.50;99.90;;;;;;6134679;23;20100;-91
2021/12/06 06:59:14;;;;;;;5.85;3.28;;;2.50;99.90;;;;;;6134616;23;20020;-94
2021/12/06 07:01:40;;;;;;;0.50;0.50;;;2.50;99.90;;;;;;6136051;23;20012;-95
2021/12/06 07:04:07;;;;;;;2.83;1.90;;;2.50;99.90;;;;;;6136022;23;20084;-94
2021/12/06 07:06:33;;;;;;;2.35;2.05;;;2.50;99.90;;;;;;6135443;23;20017;-92
2021/12/06 07:09:00;;;;;;;12.63;2.65;;;2.50;99.90;;;;;;6106211;23;20530;-93
2021/12/06 07:11:27;;;;;;;3.13;1.88;;;2.50;99.90;;;;;;6134952;23;20142;-94
2021/12/06 07:13:52;;;;;;;3.00;1.65;;;2.50;99.90;;;;;;6134779;23;20023;-93
2021/12/06 07:16:18;;;;;;;1.98;1.70;;;2.50;99.90;;;;;;6134194;23;20088;-92
2021/12/06 07:18:45;;;;;;;2.13;2.00;;;2.50;99.90;;;;;;6134029;23;20523;-93
2021/12/06 07:21:12;;;;;;;0.90;0.70;;;2.40;99.90;;;;;;6137493;23;20013;-92
2021/12/06 07:23:38;;;;;;;2.15;1.60;;;2.40;99.90;;;;;;6160266;23;20134;-96
2021/12/06 07:26:10;;;;;;;11.52;4.00;;;2.40;99.90;;;;;;6138851;23;20017;-93
2021/12/06 07:28:36;;;;;;;3.60;3.13;;;2.40;99.90;;;;;;6162670;22;20464;-96
2021/12/06 07:31:05;;;;;;;4.10;2.40;;;2.40;99.90;;;;;;6139449;23;20013;-94
2021/12/06 07:33:32;;;;;;;3.00;0.82;;;2.40;99.90;;;;;;6140431;23;20021;-92
2021/12/06 07:35:58;;;;;;;8.30;3.10;;;2.40;99.90;;;;;;6138118;23;20385;-95
2021/12/06 07:38:24;;;;;;;1.35;1.25;;;2.40;99.90;;;;;;6137074;23;20013;-94
2021/12/06 07:40:50;;;;;;;7.60;2.30;;;2.40;99.90;;;;;;6138034;23;20020;-94
2021/12/06 07:43:27;;;;;;;0.63;0.63;;;2.30;99.90;;;;;;6139965;23;20013;-91
2021/12/06 07:45:53;;;;;;;1.45;1.35;;;2.30;99.90;;;;;;6138256;23;20017;-92
2021/12/06 07:48:19;;;;;;;4.60;2.58;;;2.30;99.90;;;;;;6138588;23;20025;-93
2021/12/06 07:50:44;;;;;;;3.00;2.70;;;2.40;99.90;;;;;;6162587;23;20112;-93
2021/12/06 07:53:10;;;;;;;1.33;1.20;;;2.30;99.90;;;;;;6140272;23;20020;-91
2021/12/06 07:55:36;;;;;;;2.25;1.25;;;2.30;99.90;;;;;;6136246;23;20017;-91
2021/12/06 07:58:04;;;;;;;2.33;1.40;;;2.30;99.90;;;;;;6112697;23;20016;-93
2021/12/06 08:00:31;;;;;;;1.42;1.33;;;2.30;99.90;;;;;;6137143;23;20025;-92
2021/12/06 08:02:58;;;;;;;26.35;9.05;;;2.30;99.90;;;;;;6140603;23;20039;-96
2021/12/06 08:05:30;;;;;;;8.52;5.70;;;2.30;99.90;;;;;;6137649;23;20017;-96
2021/12/06 08:08:16;;;;;;;2.50;1.90;;;2.30;99.90;;;;;;6161924;23;20013;-95
2021/12/06 08:10:46;;;;;;;4.40;1.33;;;2.30;99.90;;;;;;6138727;23;20072;-95
2021/12/06 08:13:18;;;;;;;4.93;2.78;;;2.30;99.90;;;;;;6140294;23;20013;-96
2021/12/06 08:15:44;;;;;;;5.78;2.85;;;2.30;99.90;;;;;;6137217;23;20013;-94
2021/12/06 08:18:11;;;;;;;1.95;1.80;;;2.30;99.90;;;;;;6138133;23;20013;-95
2021/12/06 08:20:38;;;;;;;4.55;2.25;;;2.30;99.90;;;;;;6137086;23;20093;-94
2021/12/06 08:23:09;;;;;;;2.45;1.95;;;2.30;99.90;;;;;;6139741;23;20009;-92
2021/12/06 08:25:35;;;;;;;2.15;1.75;;;2.30;99.90;;;;;;6140056;23;20017;-93
2021/12/06 08:28:01;;;;;;;3.85;2.33;;;2.30;99.90;;;;;;6140086;23;20077;-95
2021/12/06 08:30:28;;;;;;;11.55;5.50;;;2.30;99.90;;;;;;6140213;23;20013;-94
2021/12/06 08:32:57;;;;;;;3.42;3.13;;;2.30;99.90;;;;;;6164875;23;20017;-89
2021/12/06 08:35:26;;;;;;;13.30;7.10;;;2.30;99.90;;;;;;6164228;23;20017;-91
2021/12/06 08:37:54;;;;;;;0.63;0.60;;;2.30;99.90;;;;;;6139243;23;20005;-91
2021/12/06 08:40:20;;;;;;;2.10;1.63;;;2.30;99.90;;;;;;6139305;23;20479;-94
2021/12/06 08:42:46;;;;;;;11.35;3.40;;;2.30;99.90;;;;;;6138578;23;20029;-88
2021/12/06 08:45:12;;;;;;;8.82;5.03;;;2.30;99.90;;;;;;6138495;23;20021;-88
2021/12/06 08:47:40;;;;;;;13.55;6.68;;;2.30;99.90;;;;;;6138656;23;20069;-92
2021/12/06 08:50:09;;;;;;;2.97;2.25;;;2.30;99.90;;;;;;6137786;23;20017;-93
2021/12/06 08:52:36;;;;;;;2.72;1.92;;;2.30;99.90;;;;;;6133578;23;20119;-94
2021/12/06 08:55:04;;;;;;;23.17;11.95;;;2.30;99.90;;;;;;6136928;23;20013;-93
2021/12/06 08:57:30;;;;;;;5.43;3.08;;;2.30;99.90;;;;;;6138013;23;20065;-94
2021/12/06 08:59:55;;;;;;;5.47;3.28;;;2.20;99.90;;;;;;6139090;23;20492;-94
2021/12/06 09:02:21;;;;;;;1.58;1.45;;;2.20;99.90;;;;;;6137882;23;20017;-93
2021/12/06 09:04:48;;;;;;;2.45;1.73;;;2.20;99.90;;;;;;6137928;23;20013;-96
2021/12/06 09:07:14;;;;;;;0.73;0.70;;;2.20;99.90;;;;;;6090985;23;20017;-95
2021/12/06 09:09:46;;;;;;;2.08;1.73;;;2.30;99.90;;;;;;6137141;23;20455;-91
2021/12/06 09:12:20;;;;;;;4.53;2.65;;;2.30;99.90;;;;;;6141063;23;20060;-95
2021/12/06 09:14:46;;;;;;;4.32;3.13;;;2.30;99.90;;;;;;6140136;23;20450;-93
2021/12/06 09:17:13;;;;;;;3.38;1.77;;;2.20;99.90;;;;;;6139624;23;20013;-93
2021/12/06 09:19:39;;;;;;;1.42;1.17;;;2.80;99.90;;;;;;6140236;23;20016;-91
2021/12/06 09:22:05;;;;;;;4.45;3.05;;;2.30;99.90;;;;;;6139658;22;20089;-96
2021/12/06 09:24:31;;;;;;;2.28;2.08;;;2.30;99.90;;;;;;6139619;23;20024;-94
2021/12/06 09:26:57;;;;;;;3.60;1.65;;;2.30;99.90;;;;;;6136796;23;20020;-94
2021/12/06 09:29:24;;;;;;;1.17;1.08;;;2.30;99.90;;;;;;6162213;23;20438;-95
2021/12/06 09:31:52;;;;;;;4.10;2.67;;;2.30;99.90;;;;;;6139170;23;20012;-94
2021/12/06 09:34:18;;;;;;;1.38;1.20;;;2.30;99.90;;;;;;6138010;22;20013;-87
2021/12/06 09:36:44;;;;;;;4.47;4.10;;;2.30;99.90;;;;;;6132268;23;20466;-85
2021/12/06 09:39:10;;;;;;;4.70;1.58;;;2.30;99.90;;;;;;6160869;23;20017;-93
2021/12/06 09:41:36;;;;;;;4.22;2.33;;;2.20;99.90;;;;;;6137427;23;20092;-95
2021/12/06 09:44:04;;;;;;;4.60;2.95;;;2.20;99.90;;;;;;6134556;23;20013;-93
2021/12/06 09:46:35;;;;;;;2.20;1.42;;;2.30;99.90;;;;;;6137016;23;20046;-91
2021/12/06 09:49:07;;;;;;;5.68;3.15;;;2.30;99.90;;;;;;6163172;23;20013;-95
2021/12/06 09:51:33;;;;;;;4.28;1.75;;;2.30;99.90;;;;;;6138864;22;20096;-94
2021/12/06 09:53:59;;;;;;;4.55;2.78;;;2.30;99.90;;;;;;6139003;23;20032;-96
2021/12/06 09:56:33;;;;;;;0.50;0.50;;;2.30;99.90;;;;;;6139228;23;20017;-94
2021/12/06 09:59:01;;;;;;;3.13;2.25;;;2.50;99.90;;;;;;6138975;22;20021;-95
2021/12/06 10:01:34;;;;;;;10.55;3.00;;;2.30;99.90;;;;;;6138969;23;20072;-91
2021/12/06 10:04:03;;;;;;;3.03;1.67;;;2.30;99.90;;;;;;6138979;23;20020;-91
2021/12/06 10:06:30;;;;;;;4.80;2.78;;;2.30;99.90;;;;;;6137649;22;20028;-94
2021/12/06 10:08:57;;;;;;;1.52;1.05;;;2.30;99.90;;;;;;6138687;23;20043;-93
2021/12/06 10:11:25;;;;;;;3.08;1.52;;;2.30;99.90;;;;;;6137264;23;20090;-94
2021/12/06 10:13:52;;;;;;;8.57;4.18;;;2.30;99.90;;;;;;6138147;23;20017;-93
2021/12/06 10:16:19;;;;;;;1.67;1.30;;;2.30;99.90;;;;;;6137075;23;20036;-93
2021/12/06 10:18:46;;;;;;;3.38;1.75;;;2.30;99.90;;;;;;6137223;22;20068;-96
2021/12/06 10:21:12;;;;;;;6.05;2.83;;;2.30;99.90;;;;;;6134490;23;20376;-93
2021/12/06 10:23:38;;;;;;;4.18;2.25;;;2.30;99.90;;;;;;6133887;23;20013;-87
2021/12/06 10:26:08;;;;;;;2.67;2.35;;;2.30;99.90;;;;;;6133969;23;20346;-89
2021/12/06 10:28:34;;;;;;;4.68;2.88;;;2.40;99.90;;;;;;6135396;23;20024;-90
2021/12/06 10:31:03;;;;;;;2.20;2.00;;;2.40;99.90;;;;;;6134735;23;20395;-95
2021/12/06 10:33:33;;;;;;;2.03;1.88;;;2.40;99.90;;;;;;6136713;22;20067;-92
2021/12/06 10:36:06;;;;;;;5.70;3.28;;;2.40;99.90;;;;;;6136817;23;20392;-95
2021/12/06 10:38:38;;;;;;;6.18;2.20;;;2.40;99.90;;;;;;6136659;23;20627;-95
2021/12/06 10:41:13;;;;;;;10.30;3.95;;;2.40;99.90;;;;;;6158887;23;20017;-95
2021/12/06 10:43:40;;;;;;;3.50;1.55;;;2.40;99.90;;;;;;6133767;23;20380;-91
2021/12/06 10:46:07;;;;;;;1.95;1.75;;;2.50;99.90;;;;;;6134031;23;20017;-91
2021/12/06 10:48:38;;;;;;;3.70;2.28;;;2.50;99.90;;;;;;6134491;23;20013;-91
2021/12/06 10:51:14;;;;;;;8.55;4.05;;;2.60;99.90;;;;;;6133906;23;20021;-92
2021/12/06 10:53:56;;;;;;;1.75;1.20;;;2.50;99.90;;;;;;6160845;23;20025;-90
2021/12/06 10:56:31;;;;;;;3.75;2.42;;;2.60;99.90;;;;;;6135852;22;20021;-90
2021/12/06 10:58:58;;;;;;;7.47;3.75;;;2.60;99.90;;;;;;6160363;23;20092;-91
2021/12/06 11:01:30;;;;;;;5.25;3.75;;;2.60;99.90;;;;;;6138481;23;20096;-91
2021/12/06 11:03:58;;;;;;;2.65;1.77;;;2.60;99.90;;;;;;6162942;23;20009;-94
2021/12/06 11:06:36;;;;;;;6.18;2.97;;;2.60;99.90;;;;;;6136402;23;20017;-94
2021/12/06 11:09:05;;;;;;;5.15;3.97;;;2.60;99.90;;;;;;6137141;23;20012;-92
2021/12/06 11:11:45;;;;;;;7.10;3.72;;;2.60;99.90;;;;;;6138672;23;20095;-91
2021/12/06 11:14:22;;;;;;;4.93;3.22;;;2.60;99.90;;;;;;6162625;22;20016;-94
2021/12/06 11:16:53;;;;;;;8.57;3.75;;;2.60;99.90;;;;;;6135727;22;20021;-94
2021/12/06 11:19:21;;;;;;;9.68;4.88;;;2.70;99.90;;;;;;6139773;23;20020;-93
2021/12/06 11:22:02;;;;;;;6.05;3.60;;;2.60;99.90;;;;;;6142609;23;20045;-95
2021/12/06 11:24:39;;;;;;;11.00;5.82;;;2.60;99.90;;;;;;6140487;23;20045;-94
2021/12/06 11:27:14;;;;;;;12.68;5.35;;;2.60;99.90;;;;;;6138645;23;20009;-93
2021/12/06 11:29:41;;;;;;;3.35;2.20;;;2.70;99.90;;;;;;6141466;23;20017;-94
2021/12/06 11:32:14;;;;;;;7.85;4.50;;;2.70;99.90;;;;;;6138500;23;20706;-94
2021/12/06 11:34:57;;;;;;;12.35;6.18;;;2.60;99.90;;;;;;6139338;23;20396;-94
2021/12/06 11:37:30;;;;;;;3.70;1.92;;;2.50;99.90;;;;;;6136845;23;20017;-94
2021/12/06 11:40:25;;;;;;;10.88;6.38;;;2.60;99.90;;;;;;6139824;23;20016;-95
2021/12/06 11:43:00;;;;;;;12.32;2.97;;;2.70;99.90;;;;;;6138914;23;20009;-93
2021/12/06 11:45:55;;;;;;;;;;;2.70;99.90;;;;;;6139956;23;20045;-94
2021/12/06 11:48:32;;;;;;;11.82;3.53;;;2.70;99.90;;;;;;6137466;23;19912;-94
2021/12/06 11:51:03;;;;;;;4.30;2.05;;;2.70;99.90;;;;;;6136893;23;20044;-93
2021/12/06 11:53:54;;;;;;;4.78;2.20;;;2.70;99.90;;;;;;6137995;23;20024;-91
2021/12/06 11:56:30;;;;;;;6.38;3.10;;;2.70;99.90;;;;;;6143795;22;20327;-93
2021/12/06 11:59:03;;;;;;;11.75;4.05;;;2.70;99.90;;;;;;6134009;23;20020;-93
2021/12/06 12:01:31;;;;;;;7.25;3.40;;;2.70;99.90;;;;;;6160578;23;20035;-93
2021/12/06 12:04:06;;;;;;;4.85;2.72;;;2.70;99.90;;;;;;6139554;23;20350;-95
2021/12/06 12:06:34;;;;;;;7.43;4.43;;;2.70;99.90;;;;;;6140110;23;20052;-90
2021/12/06 12:09:15;;;;;;;11.70;6.28;;;2.70;99.90;;;;;;6130286;23;20025;-90
2021/12/06 12:12:19;;;;;;;8.82;3.83;;;2.70;99.90;;;;;;6135267;23;20019;-89
2021/12/06 12:14:55;;;;;;;5.05;3.53;;;2.70;99.90;;;;;;6140423;23;20027;-96
2021/12/06 12:17:25;;;;;;;8.55;3.60;;;2.70;99.90;;;;;;6139835;23;20044;-94
2021/12/06 12:19:53;;;;;;;2.47;2.22;;;2.70;99.90;;;;;;6142701;23;20037;-96
2021/12/06 12:22:20;;;;;;;5.07;2.83;;;2.70;99.90;;;;;;6144011;22;20032;-94
2021/12/06 12:24:51;;;;;;;3.90;3.00;;;2.70;99.90;;;;;;6137798;23;20017;-96
2021/12/06 12:27:42;;;;;;;4.78;2.17;;;2.60;99.90;;;;;;6134203;23;20473;-94
2021/12/06 12:30:09;;;;;;;7.60;3.92;;;2.90;99.90;;;;;;6134434;23;20071;-96
2021/12/06 12:32:35;;;;;;;10.27;3.58;;;2.80;99.90;;;;;;6134464;23;20067;-94
2021/12/06 12:35:09;;;;;;;14.35;5.55;;;2.80;99.90;;;;;;6137225;23;20520;-95
2021/12/06 12:37:37;;;;;;;6.80;2.70;;;2.80;99.90;;;;;;6139087;23;20062;-95
2021/12/06 12:40:08;;;;;;;2.65;1.95;;;2.80;99.90;;;;;;6140959;23;20044;-96
2021/12/06 12:42:34;;;;;;;7.20;3.88;;;2.90;99.90;;;;;;6136154;23;20048;-90
2021/12/06 12:45:05;;;;;;;9.15;4.13;;;3.30;99.90;;;;;;6132366;23;20021;-93
2021/12/06 12:47:34;;;;;;;11.82;3.97;;;3.00;99.90;;;;;;6160997;22;20016;-91
2021/12/06 12:50:20;;;;;;;8.48;1.50;;;2.90;99.90;;;;;;6136144;23;20025;-94
2021/12/06 12:52:55;;;;;;;6.25;3.30;;;2.90;99.90;;;;;;6138476;23;20017;-95
2021/12/06 12:55:29;;;;;;;6.97;3.20;;;2.80;99.90;;;;;;6136623;23;20059;-96
2021/12/06 12:58:13;;;;;;;5.22;2.38;;;2.80;99.90;;;;;;6138972;23;20252;-95
2021/12/06 13:00:59;;;;;;;6.60;3.53;;;3.40;99.90;;;;;;6139890;23;20067;-96
2021/12/06 13:03:41;;;;;;;7.60;4.20;;;2.80;99.90;;;;;;6135951;23;20401;-94
2021/12/06 13:06:12;;;;;;;9.55;4.18;;;2.80;99.90;;;;;;6137274;23;20020;-91
2021/12/06 13:08:38;;;;;;;17.95;6.15;;;2.80;99.90;;;;;;6137282;23;20024;-94
2021/12/06 13:11:04;;;;;;;6.57;4.72;;;2.80;99.90;;;;;;6135443;23;20013;-89
2021/12/06 13:13:44;;;;;;;5.32;2.08;;;2.80;99.90;;;;;;6138099;23;20017;-87
2021/12/06 13:16:43;;;;;;;10.07;4.28;;;2.80;99.90;;;;;;6159920;23;20044;-89
2021/12/06 13:19:18;;;;;;;7.63;3.15;;;2.80;99.90;;;;;;6136292;23;20013;-96